Time;durP1;ratioP1;P1;durP2;ratioP2;P2;SDS_P1;SDS_P2;PMS_P1;PMS_P2;Temp;Humidity;BMP_temperature;BMP_pressure;BME280_temperature;BME280_humidity;BME280_pressure;Samples;Min_cycle;Max_cycle;Signal;HPM_P1;HPM_P2
2023/05/15 00:00:27;;;;;;;0.57;0.57;;;11.10;99.90;;;;;;5016461;28;20741;-70
2023/05/15 00:02:52;;;;;;;0.93;0.70;;;11.00;99.90;;;;;;5016354;28;20203;-70
2023/05/15 00:05:18;;;;;;;1.03;1.03;;;11.00;99.90;;;;;;5015873;28;20233;-70
2023/05/15 00:07:44;;;;;;;0.50;0.50;;;11.10;99.90;;;;;;5015804;28;20171;-70
2023/05/15 00:10:09;;;;;;;0.70;0.70;;;11.10;99.90;;;;;;5015828;28;20218;-70
2023/05/15 00:12:35;;;;;;;0.63;0.60;;;11.20;99.90;;;;;;5015712;28;20445;-70
2023/05/15 00:15:01;;;;;;;0.63;0.63;;;11.20;99.90;;;;;;5015841;28;20206;-70
2023/05/15 00:17:27;;;;;;;0.93;0.93;;;11.20;99.90;;;;;;5015559;28;20409;-69
2023/05/15 00:19:56;;;;;;;0.77;0.77;;;11.20;99.90;;;;;;5015627;28;20172;-69
2023/05/15 00:22:22;;;;;;;0.70;0.70;;;11.10;99.90;;;;;;5015655;28;20199;-69
2023/05/15 00:24:48;;;;;;;1.40;0.73;;;11.10;99.90;;;;;;5015602;28;20970;-70
2023/05/15 00:27:13;;;;;;;1.30;1.20;;;11.00;99.90;;;;;;5015402;28;20426;-69
2023/05/15 00:29:39;;;;;;;1.03;1.03;;;11.00;99.90;;;;;;5015477;28;20167;-70
2023/05/15 00:32:05;;;;;;;0.50;0.50;;;11.00;99.90;;;;;;5015329;28;20187;-69
2023/05/15 00:34:30;;;;;;;1.47;1.37;;;11.10;99.90;;;;;;5015460;28;20178;-70
2023/05/15 00:36:56;;;;;;;1.50;1.40;;;11.10;99.90;;;;;;5015304;28;20734;-69
2023/05/15 00:39:22;;;;;;;0.53;0.53;;;11.10;99.90;;;;;;4997816;28;20175;-70
2023/05/15 00:41:50;;;;;;;1.17;1.17;;;11.00;99.90;;;;;;4997616;28;20187;-70
2023/05/15 00:44:18;;;;;;;0.57;0.57;;;10.90;99.90;;;;;;5015183;28;20286;-70
2023/05/15 00:46:45;;;;;;;1.17;0.93;;;10.90;99.90;;;;;;5015014;28;20431;-69
2023/05/15 00:49:13;;;;;;;0.50;0.50;;;10.80;99.90;;;;;;5015098;28;20901;-70
2023/05/15 00:51:42;;;;;;;0.50;0.50;;;10.80;99.90;;;;;;5015089;28;20415;-69
2023/05/15 00:54:09;;;;;;;1.37;0.97;;;10.70;99.90;;;;;;5015224;28;20499;-68
2023/05/15 00:56:34;;;;;;;0.30;0.30;;;10.70;99.90;;;;;;5014875;28;20415;-70
2023/05/15 00:59:03;;;;;;;1.37;1.17;;;10.70;99.90;;;;;;5014400;28;20437;-69
2023/05/15 01:01:33;;;;;;;0.65;0.65;;;10.60;99.90;;;;;;5014789;28;20199;-70
2023/05/15 01:04:02;;;;;;;1.10;1.02;;;10.60;99.90;;;;;;5014820;28;20203;-70
2023/05/15 01:06:28;;;;;;;0.73;0.55;;;10.60;99.90;;;;;;4996990;28;20542;-69
2023/05/15 01:08:56;;;;;;;0.30;0.30;;;10.60;99.90;;;;;;5014891;28;20175;-70
2023/05/15 01:11:24;;;;;;;0.47;0.47;;;10.60;99.90;;;;;;5014633;28;20449;-70
2023/05/15 01:13:50;;;;;;;0.52;0.50;;;10.60;99.90;;;;;;5014719;28;20254;-70
2023/05/15 01:16:15;;;;;;;0.40;0.40;;;10.60;99.90;;;;;;5014438;28;20206;-69
2023/05/15 01:18:41;;;;;;;0.53;0.40;;;10.60;99.90;;;;;;5014697;28;20186;-70
2023/05/15 01:21:42;;;;;;;1.00;0.47;;;10.50;99.90;;;;;;5014572;28;20191;-69
2023/05/15 01:24:41;;;;;;;1.95;0.77;;;10.40;99.90;;;;;;5014098;28;20468;-69
2023/05/15 01:27:22;;;;;;;0.43;0.43;;;10.40;99.90;;;;;;5014485;28;20631;-70
2023/05/15 01:30:03;;;;;;;0.30;0.30;;;10.40;99.90;;;;;;5014323;28;20164;-69
2023/05/15 01:33:00;;;;;;;0.40;0.40;;;10.40;99.90;;;;;;4996669;28;20172;-69
2023/05/15 01:35:45;;;;;;;0.50;0.50;;;10.40;99.90;;;;;;5014247;28;20172;-69
2023/05/15 01:38:20;;;;;;;0.40;0.40;;;10.30;99.90;;;;;;5014425;28;20211;-69
2023/05/15 01:40:51;;;;;;;0.30;0.30;;;10.30;99.90;;;;;;5014033;28;20257;-70
2023/05/15 01:43:23;;;;;;;3.15;1.17;;;10.30;99.90;;;;;;5014170;28;20210;-70
2023/05/15 01:45:48;;;;;;;0.40;0.40;;;10.40;99.90;;;;;;5014027;28;20254;-69
2023/05/15 01:48:16;;;;;;;0.40;0.40;;;10.30;99.90;;;;;;5014376;28;20679;-70
2023/05/15 01:50:44;;;;;;;0.50;0.50;;;10.30;99.90;;;;;;5014317;28;20245;-69
2023/05/15 01:53:11;;;;;;;0.40;0.40;;;10.30;99.90;;;;;;5014237;28;20644;-69
2023/05/15 01:55:38;;;;;;;0.70;0.70;;;10.20;99.90;;;;;;5013816;28;20179;-69
2023/05/15 01:58:04;;;;;;;0.90;0.90;;;10.20;99.90;;;;;;5013915;28;20402;-70
2023/05/15 02:00:32;;;;;;;0.82;0.82;;;10.30;99.90;;;;;;5013830;28;20207;-70
2023/05/15 02:02:58;;;;;;;1.52;1.42;;;10.40;99.90;;;;;;5013884;28;20223;-70
2023/05/15 02:05:25;;;;;;;0.40;0.40;;;10.40;99.90;;;;;;5013705;28;20187;-69
2023/05/15 02:07:51;;;;;;;1.00;1.00;;;10.40;99.90;;;;;;5013795;28;20399;-69
2023/05/15 02:10:18;;;;;;;0.37;0.37;;;10.40;99.90;;;;;;5012862;28;20426;-70
2023/05/15 02:12:44;;;;;;;0.90;0.90;;;10.30;99.90;;;;;;5013816;28;20573;-69
2023/05/15 02:15:12;;;;;;;0.30;0.30;;;10.30;99.90;;;;;;5013791;28;20890;-69
2023/05/15 02:17:37;;;;;;;0.40;0.40;;;10.30;99.90;;;;;;4996027;28;20788;-70
2023/05/15 02:20:07;;;;;;;1.43;1.43;;;10.30;99.90;;;;;;5013648;28;20403;-69
2023/05/15 02:22:33;;;;;;;2.35;0.65;;;10.10;99.90;;;;;;5013504;28;20741;-70
2023/05/15 02:24:58;;;;;;;0.67;0.67;;;10.10;99.90;;;;;;5013868;28;20180;-70
2023/05/15 02:27:27;;;;;;;0.57;0.57;;;10.20;99.90;;;;;;5013532;28;20218;-70
2023/05/15 02:30:20;;;;;;;1.05;1.05;;;10.80;99.90;;;;;;5013553;28;20172;-70
2023/05/15 02:33:07;;;;;;;0.95;0.95;;;10.40;99.90;;;;;;5013993;28;20576;-69
2023/05/15 02:35:55;;;;;;;0.38;0.38;;;10.30;99.90;;;;;;5013292;28;20190;-69
2023/05/15 02:38:31;;;;;;;1.07;1.00;;;10.20;99.90;;;;;;4995989;28;20187;-70
2023/05/15 02:40:57;;;;;;;1.10;1.00;;;10.10;99.90;;;;;;4995721;28;20973;-69
2023/05/15 02:43:25;;;;;;;0.52;0.52;;;10.10;99.90;;;;;;5013567;28;20845;-70
2023/05/15 02:45:53;;;;;;;2.08;1.55;;;10.00;99.90;;;;;;5013234;28;20202;-69
2023/05/15 02:48:19;;;;;;;0.50;0.50;;;9.90;99.90;;;;;;5013497;28;20564;-70
2023/05/15 02:50:44;;;;;;;0.30;0.30;;;10.00;99.90;;;;;;5013303;28;20191;-70
2023/05/15 02:53:13;;;;;;;0.40;0.40;;;9.90;99.90;;;;;;5013461;28;20434;-70
2023/05/15 02:55:38;;;;;;;1.73;1.65;;;9.80;99.90;;;;;;5013319;28;20415;-69
2023/05/15 02:58:04;;;;;;;0.70;0.70;;;9.60;99.90;;;;;;5013311;28;20175;-70
2023/05/15 03:00:30;;;;;;;1.90;0.73;;;9.50;99.90;;;;;;5013392;28;20253;-69
2023/05/15 03:02:55;;;;;;;0.77;0.50;;;9.40;99.90;;;;;;5013268;28;20192;-70
2023/05/15 03:05:21;;;;;;;0.83;0.77;;;9.30;99.90;;;;;;5013260;28;20217;-69
2023/05/15 03:07:47;;;;;;;0.40;0.40;;;9.30;99.90;;;;;;5013443;28;20667;-69
2023/05/15 03:10:12;;;;;;;0.50;0.50;;;9.20;99.90;;;;;;5013348;28;20241;-70
2023/05/15 03:12:38;;;;;;;0.80;0.50;;;9.20;99.90;;;;;;5013041;28;20728;-70
2023/05/15 03:15:05;;;;;;;0.63;0.63;;;9.30;99.90;;;;;;5013173;28;20258;-70
2023/05/15 03:17:31;;;;;;;0.50;0.50;;;9.20;99.90;;;;;;5012925;28;20206;-70
2023/05/15 03:19:57;;;;;;;0.53;0.53;;;9.30;99.90;;;;;;5013187;28;20540;-69
2023/05/15 03:22:23;;;;;;;1.33;1.33;;;9.20;99.90;;;;;;5016466;28;20452;-69
2023/05/15 03:24:48;;;;;;;3.03;2.93;;;9.20;99.90;;;;;;5016690;28;20536;-69
2023/05/15 03:27:14;;;;;;;0.60;0.57;;;9.20;99.90;;;;;;5016514;28;20639;-70
2023/05/15 03:29:40;;;;;;;1.20;1.20;;;9.10;99.90;;;;;;5016632;28;20760;-70
2023/05/15 03:32:06;;;;;;;1.15;1.15;;;9.00;99.90;;;;;;5016523;28;20193;-70
2023/05/15 03:34:32;;;;;;;0.30;0.30;;;8.90;99.90;;;;;;5015639;28;20703;-71
2023/05/15 03:36:57;;;;;;;0.80;0.80;;;8.80;99.90;;;;;;5015599;28;20225;-71
2023/05/15 03:39:23;;;;;;;1.13;1.03;;;8.80;99.90;;;;;;5016660;28;20666;-71
2023/05/15 03:41:48;;;;;;;0.30;0.30;;;8.70;99.90;;;;;;5015370;28;20198;-71
2023/05/15 03:44:14;;;;;;;0.50;0.50;;;8.70;99.90;;;;;;5016473;28;20340;-71
2023/05/15 03:46:40;;;;;;;0.93;0.93;;;8.70;99.90;;;;;;5016139;28;20168;-70
2023/05/15 03:49:05;;;;;;;0.40;0.40;;;8.70;99.90;;;;;;5016220;28;20530;-71
2023/05/15 03:51:31;;;;;;;20.67;2.13;;;8.60;99.90;;;;;;5016173;28;20532;-71
2023/05/15 03:53:57;;;;;;;2.30;0.50;;;8.50;99.90;;;;;;5016345;28;20175;-71
2023/05/15 03:56:22;;;;;;;0.40;0.40;;;8.50;99.90;;;;;;5015996;28;20175;-68
2023/05/15 03:58:48;;;;;;;0.40;0.40;;;8.80;99.90;;;;;;5014747;28;20175;-69
2023/05/15 04:01:14;;;;;;;0.80;0.77;;;9.50;99.90;;;;;;5016306;28;20667;-69
2023/05/15 04:03:39;;;;;;;1.13;0.70;;;9.70;99.90;;;;;;5015032;28;20200;-69
2023/05/15 04:06:05;;;;;;;0.40;0.40;;;9.70;99.90;;;;;;5014444;28;20174;-68
2023/05/15 04:08:31;;;;;;;0.97;0.97;;;9.50;99.90;;;;;;5015390;28;20634;-70
2023/05/15 04:10:56;;;;;;;0.50;0.50;;;9.30;99.90;;;;;;5015868;28;20191;-70
2023/05/15 04:13:22;;;;;;;1.37;1.37;;;9.20;99.90;;;;;;5015753;28;20195;-69
2023/05/15 04:15:47;;;;;;;0.50;0.50;;;9.10;99.90;;;;;;5015597;28;20247;-70
2023/05/15 04:18:13;;;;;;;0.40;0.40;;;9.10;99.90;;;;;;5015865;28;20572;-70
2023/05/15 04:20:38;;;;;;;0.70;0.60;;;9.00;99.90;;;;;;5015741;28;20195;-70
2023/05/15 04:23:04;;;;;;;0.80;0.80;;;8.90;99.90;;;;;;5015585;28;20282;-70
2023/05/15 04:25:31;;;;;;;0.93;0.57;;;8.80;99.90;;;;;;5015576;28;20550;-70
2023/05/15 04:27:57;;;;;;;0.43;0.43;;;8.70;99.90;;;;;;5014809;28;20176;-70
2023/05/15 04:30:23;;;;;;;5.50;1.20;;;8.70;99.90;;;;;;5015550;28;20192;-70
2023/05/15 04:32:50;;;;;;;1.63;0.53;;;8.60;99.90;;;;;;5014481;28;20414;-70
2023/05/15 04:35:16;;;;;;;0.60;0.60;;;8.60;99.90;;;;;;5013700;28;20428;-70
2023/05/15 04:37:44;;;;;;;0.30;0.30;;;8.60;99.90;;;;;;5015068;28;20206;-70
2023/05/15 04:40:11;;;;;;;0.95;0.80;;;8.60;99.90;;;;;;5015039;28;20184;-70
2023/05/15 04:42:37;;;;;;;1.20;0.80;;;8.70;99.90;;;;;;5015565;28;20199;-70
2023/05/15 04:45:02;;;;;;;0.90;0.90;;;8.80;99.90;;;;;;5015856;28;20526;-70
2023/05/15 04:47:28;;;;;;;0.47;0.47;;;8.90;99.90;;;;;;5014970;28;20407;-70
2023/05/15 04:49:54;;;;;;;0.50;0.50;;;9.00;99.90;;;;;;5012980;28;20574;-70
2023/05/15 04:52:20;;;;;;;0.40;0.40;;;9.20;99.90;;;;;;5014993;28;20235;-70
2023/05/15 04:54:46;;;;;;;1.40;1.37;;;9.30;99.90;;;;;;5014409;28;20176;-68
2023/05/15 04:57:12;;;;;;;0.65;0.65;;;9.50;99.90;;;;;;5015132;28;20163;-68
2023/05/15 04:59:38;;;;;;;0.63;0.63;;;9.70;99.90;;;;;;5015124;28;20176;-69
2023/05/15 05:02:04;;;;;;;1.47;1.37;;;9.80;99.90;;;;;;5014686;28;20196;-69
2023/05/15 05:04:29;;;;;;;1.07;1.03;;;9.90;99.90;;;;;;5014603;28;20176;-70
2023/05/15 05:06:55;;;;;;;3.03;2.10;;;10.00;99.90;;;;;;5013742;28;20267;-70
2023/05/15 05:09:21;;;;;;;1.10;1.10;;;10.10;99.90;;;;;;5014755;28;20414;-70
2023/05/15 05:11:47;;;;;;;2.80;0.97;;;10.10;99.90;;;;;;5013469;28;20286;-71
2023/05/15 05:14:14;;;;;;;1.05;1.05;;;10.20;99.90;;;;;;4997028;28;20179;-71
2023/05/15 05:16:43;;;;;;;0.70;0.70;;;10.20;99.90;;;;;;5014820;28;20198;-71
2023/05/15 05:19:09;;;;;;;2.95;2.75;;;10.10;99.90;;;;;;5014874;28;20521;-71
2023/05/15 05:21:35;;;;;;;1.43;1.23;;;10.10;99.90;;;;;;5014814;28;20187;-71
2023/05/15 05:24:00;;;;;;;1.27;1.17;;;10.20;99.90;;;;;;5014818;28;20227;-71
2023/05/15 05:26:26;;;;;;;0.70;0.70;;;10.20;99.90;;;;;;5014477;28;20182;-70
2023/05/15 05:28:52;;;;;;;0.63;0.63;;;10.20;99.90;;;;;;5015037;28;20168;-71
2023/05/15 05:31:18;;;;;;;0.70;0.70;;;10.30;99.90;;;;;;5014826;28;20540;-71
2023/05/15 05:33:43;;;;;;;0.53;0.50;;;10.30;99.90;;;;;;5014459;28;20402;-71
2023/05/15 05:36:09;;;;;;;1.30;1.23;;;10.40;99.90;;;;;;5014158;28;20202;-71
2023/05/15 05:38:35;;;;;;;1.57;1.47;;;10.40;99.90;;;;;;5014640;28;20203;-72
2023/05/15 05:41:02;;;;;;;2.00;1.90;;;10.40;99.90;;;;;;5014671;28;20199;-71
2023/05/15 05:43:27;;;;;;;0.50;0.50;;;10.50;99.90;;;;;;5014195;28;20454;-71
2023/05/15 05:45:53;;;;;;;1.83;1.67;;;10.50;99.90;;;;;;5014213;28;20422;-70
2023/05/15 05:48:19;;;;;;;0.40;0.40;;;10.50;99.90;;;;;;5014289;28;20465;-71
2023/05/15 05:50:45;;;;;;;1.43;1.33;;;10.50;99.90;;;;;;5014364;28;20183;-71
2023/05/15 05:53:10;;;;;;;0.50;0.50;;;10.40;99.90;;;;;;5014499;28;20502;-71
2023/05/15 05:55:36;;;;;;;1.33;1.23;;;10.40;99.90;;;;;;4996579;28;20179;-71
2023/05/15 05:58:02;;;;;;;0.70;0.70;;;10.50;99.90;;;;;;5012854;28;20172;-71
2023/05/15 06:00:28;;;;;;;0.70;0.70;;;10.60;99.90;;;;;;5014100;28;20195;-71
2023/05/15 06:02:58;;;;;;;0.47;0.47;;;10.60;99.90;;;;;;5013693;28;20811;-71
2023/05/15 06:05:27;;;;;;;0.75;0.75;;;10.60;99.90;;;;;;5013300;28;20214;-70
2023/05/15 06:07:53;;;;;;;0.52;0.52;;;10.60;99.90;;;;;;5013764;28;20205;-70
2023/05/15 06:10:20;;;;;;;1.10;1.10;;;10.60;99.90;;;;;;5014390;28;20207;-70
2023/05/15 06:12:46;;;;;;;1.58;1.48;;;10.60;99.90;;;;;;5013826;28;20430;-69
2023/05/15 06:15:12;;;;;;;0.60;0.60;;;10.70;99.90;;;;;;5014111;28;20197;-68
2023/05/15 06:17:38;;;;;;;0.40;0.40;;;10.80;99.90;;;;;;5013749;28;20211;-68
2023/05/15 06:20:08;;;;;;;1.70;0.80;;;10.90;99.90;;;;;;5013639;28;20765;-70
2023/05/15 06:22:35;;;;;;;1.40;0.87;;;10.90;99.90;;;;;;5014002;28;20849;-71
2023/05/15 06:25:01;;;;;;;1.27;0.90;;;11.00;99.90;;;;;;5014207;28;20399;-69
2023/05/15 06:27:28;;;;;;;0.70;0.70;;;11.20;99.90;;;;;;5013406;28;20410;-70
2023/05/15 06:29:54;;;;;;;0.50;0.50;;;11.30;99.90;;;;;;5013633;28;20417;-71
2023/05/15 06:32:20;;;;;;;1.37;1.27;;;11.50;99.90;;;;;;5014107;28;20421;-70
2023/05/15 06:34:45;;;;;;;0.70;0.70;;;11.80;99.90;;;;;;5013758;28;20891;-69
2023/05/15 06:37:11;;;;;;;0.80;0.80;;;12.30;99.90;;;;;;4996355;28;20191;-68
2023/05/15 06:39:37;;;;;;;1.67;1.30;;;12.80;99.90;;;;;;5014101;28;20178;-69
2023/05/15 06:42:03;;;;;;;1.00;1.00;;;13.30;99.90;;;;;;5013417;28;20183;-69
2023/05/15 06:44:30;;;;;;;0.53;0.53;;;13.70;99.90;;;;;;5013620;28;20195;-68
2023/05/15 06:46:56;;;;;;;0.53;0.50;;;14.10;99.90;;;;;;5013503;28;20429;-73
2023/05/15 06:49:22;;;;;;;1.10;1.00;;;14.40;98.90;;;;;;5013747;28;20392;-71
2023/05/15 06:51:48;;;;;;;1.00;1.00;;;14.40;97.30;;;;;;5013304;28;20422;-72
2023/05/15 06:54:14;;;;;;;0.60;0.60;;;14.30;97.00;;;;;;5013518;28;20424;-72
2023/05/15 06:56:39;;;;;;;0.83;0.83;;;14.10;97.00;;;;;;5016050;28;20804;-71
2023/05/15 06:59:05;;;;;;;0.70;0.63;;;14.00;96.90;;;;;;5017458;28;20180;-71
2023/05/15 07:01:31;;;;;;;1.47;0.93;;;13.70;97.00;;;;;;5017366;28;20191;-72
2023/05/15 07:03:57;;;;;;;0.40;0.40;;;13.60;97.10;;;;;;5017424;28;20198;-72
2023/05/15 07:06:22;;;;;;;1.73;1.27;;;13.50;97.30;;;;;;5017128;28;20407;-72
2023/05/15 07:08:48;;;;;;;0.50;0.50;;;13.40;97.80;;;;;;5017544;28;20232;-72
2023/05/15 07:11:14;;;;;;;1.23;1.20;;;13.50;98.00;;;;;;5016818;28;20195;-72
2023/05/15 07:13:40;;;;;;;1.00;0.93;;;13.50;98.00;;;;;;5015848;28;20179;-72
2023/05/15 07:16:05;;;;;;;0.50;0.50;;;13.50;98.30;;;;;;5016674;28;20588;-72
2023/05/15 07:18:31;;;;;;;0.70;0.70;;;13.50;98.50;;;;;;5016921;28;20398;-72
2023/05/15 07:20:57;;;;;;;0.97;0.97;;;13.70;98.60;;;;;;5015898;28;20738;-71
2023/05/15 07:23:22;;;;;;;0.93;0.93;;;13.80;98.20;;;;;;5017264;28;20205;-71
2023/05/15 07:25:48;;;;;;;0.83;0.83;;;13.90;98.00;;;;;;5017094;28;20170;-71
2023/05/15 07:28:13;;;;;;;1.87;1.77;;;14.10;98.40;;;;;;4998971;28;20176;-70
2023/05/15 07:30:40;;;;;;;1.13;1.13;;;14.50;98.30;;;;;;5016620;28;20261;-71
2023/05/15 07:33:06;;;;;;;0.63;0.63;;;15.20;98.10;;;;;;5016104;28;20182;-71
2023/05/15 07:35:31;;;;;;;0.70;0.70;;;15.90;96.50;;;;;;5015749;28;20407;-70
2023/05/15 07:37:57;;;;;;;0.50;0.50;;;16.50;96.10;;;;;;5015312;28;20175;-72
2023/05/15 07:40:23;;;;;;;0.40;0.40;;;16.80;94.40;;;;;;5014022;28;20284;-69
2023/05/15 07:42:48;;;;;;;0.90;0.60;;;16.90;94.40;;;;;;5015932;28;20202;-71
2023/05/15 07:45:14;;;;;;;0.80;0.80;;;16.90;93.10;;;;;;5016453;28;20170;-70
2023/05/15 07:47:48;;;;;;;0.93;0.80;;;17.20;93.70;;;;;;5015110;28;20538;-72
2023/05/15 07:50:14;;;;;;;0.93;0.90;;;17.50;93.00;;;;;;5015989;28;20422;-72
2023/05/15 07:52:40;;;;;;;0.70;0.70;;;17.70;93.20;;;;;;5015177;28;20749;-70
2023/05/15 07:55:07;;;;;;;1.00;1.00;;;17.30;92.60;;;;;;5016037;28;20574;-71
2023/05/15 07:57:32;;;;;;;0.80;0.80;;;16.70;93.20;;;;;;5015641;28;20410;-70
2023/05/15 07:59:58;;;;;;;0.60;0.60;;;16.40;94.30;;;;;;5014983;28;20414;-70
2023/05/15 08:02:24;;;;;;;0.90;0.87;;;16.10;94.60;;;;;;5016169;28;20182;-71
2023/05/15 08:04:49;;;;;;;1.00;1.00;;;15.80;95.70;;;;;;5016175;28;20200;-70
2023/05/15 08:07:15;;;;;;;1.23;1.10;;;16.10;95.80;;;;;;5014367;28;20667;-71
2023/05/15 08:09:41;;;;;;;0.90;0.90;;;16.40;95.50;;;;;;5015842;28;20217;-70
2023/05/15 08:12:19;;;;;;;0.90;0.90;;;17.00;94.60;;;;;;5015827;28;20609;-70
2023/05/15 08:14:54;;;;;;;1.13;1.10;;;17.50;93.80;;;;;;5015957;28;20175;-70
2023/05/15 08:17:21;;;;;;;0.90;0.90;;;18.00;93.40;;;;;;5015868;28;20437;-70
2023/05/15 08:19:47;;;;;;;0.87;0.87;;;18.40;93.10;;;;;;5015782;28;20406;-71
2023/05/15 08:22:13;;;;;;;2.23;1.77;;;18.20;93.00;;;;;;5015955;28;20432;-70
2023/05/15 08:24:39;;;;;;;1.30;1.20;;;18.30;92.30;;;;;;5015734;28;20403;-70
2023/05/15 08:27:05;;;;;;;1.03;0.90;;;17.90;92.40;;;;;;5015668;28;20796;-68
2023/05/15 08:29:31;;;;;;;1.90;1.50;;;17.60;93.20;;;;;;5014840;28;20205;-69
2023/05/15 08:31:57;;;;;;;0.80;0.80;;;17.40;93.20;;;;;;5015430;28;20479;-68
2023/05/15 08:34:23;;;;;;;0.80;0.80;;;17.10;93.80;;;;;;5015429;28;20893;-69
2023/05/15 08:36:49;;;;;;;1.00;1.00;;;16.80;94.40;;;;;;5015173;28;20178;-71
2023/05/15 08:39:15;;;;;;;1.23;1.13;;;16.30;94.90;;;;;;5015360;28;20773;-70
2023/05/15 08:41:50;;;;;;;1.20;1.20;;;16.10;95.60;;;;;;5015294;28;20187;-71
2023/05/15 08:44:16;;;;;;;1.17;1.13;;;16.20;95.80;;;;;;5015516;28;20199;-70
2023/05/15 08:46:42;;;;;;;0.50;0.50;;;16.40;96.10;;;;;;5015021;28;20400;-71
2023/05/15 08:49:31;;;;;;;1.63;1.53;;;16.70;95.40;;;;;;5015305;28;20398;-71
2023/05/15 08:51:57;;;;;;;2.43;1.17;;;17.00;95.70;;;;;;5015393;28;20429;-70
2023/05/15 08:54:24;;;;;;;0.53;0.53;;;18.10;95.40;;;;;;5015117;28;20407;-71
2023/05/15 08:56:50;;;;;;;2.63;1.27;;;19.00;93.70;;;;;;5014732;28;20214;-70
2023/05/15 08:59:17;;;;;;;1.13;1.10;;;19.30;92.40;;;;;;5015094;28;20408;-71
2023/05/15 09:01:42;;;;;;;0.83;0.83;;;19.90;90.00;;;;;;5014748;28;20429;-70
2023/05/15 09:04:08;;;;;;;1.50;1.40;;;20.60;88.20;;;;;;5015019;28;20799;-71
2023/05/15 09:06:36;;;;;;;1.13;1.00;;;21.60;87.10;;;;;;5012915;28;20255;-73
2023/05/15 09:09:04;;;;;;;0.90;0.70;;;22.70;83.80;;;;;;5015271;28;20259;-73
2023/05/15 09:11:31;;;;;;;2.03;1.93;;;22.70;82.00;;;;;;5014340;28;20443;-71
2023/05/15 09:13:58;;;;;;;1.10;1.10;;;22.40;81.20;;;;;;5013141;28;20424;-71
2023/05/15 09:16:24;;;;;;;0.87;0.73;;;21.80;80.10;;;;;;5013767;28;20419;-71
2023/05/15 09:18:52;;;;;;;0.57;0.57;;;20.80;80.80;;;;;;5012988;28;20467;-70
2023/05/15 09:21:30;;;;;;;0.73;0.73;;;20.10;85.00;;;;;;5014438;28;20434;-72
2023/05/15 09:24:21;;;;;;;1.23;1.07;;;19.70;83.90;;;;;;5015051;28;20831;-71
2023/05/15 09:27:02;;;;;;;0.93;0.93;;;19.50;87.30;;;;;;5013333;28;20433;-71
2023/05/15 09:29:30;;;;;;;1.03;0.93;;;19.10;85.90;;;;;;5013191;28;20845;-70
2023/05/15 09:32:00;;;;;;;0.60;0.60;;;18.90;88.80;;;;;;5013136;28;20418;-72
2023/05/15 09:34:31;;;;;;;0.90;0.90;;;18.90;88.70;;;;;;5014368;28;20413;-71
2023/05/15 09:36:57;;;;;;;1.07;1.07;;;19.10;87.20;;;;;;5014098;28;20433;-71
2023/05/15 09:39:23;;;;;;;1.53;1.43;;;19.00;86.40;;;;;;5014407;28;20505;-72
2023/05/15 09:41:51;;;;;;;0.80;0.67;;;19.10;84.20;;;;;;5014128;28;20527;-71
2023/05/15 09:44:18;;;;;;;1.37;1.30;;;19.20;86.40;;;;;;5013875;28;20455;-73
2023/05/15 09:46:45;;;;;;;0.50;0.50;;;19.40;86.30;;;;;;5013908;28;20435;-74
2023/05/15 09:49:11;;;;;;;0.83;0.60;;;20.20;83.10;;;;;;5014256;28;20402;-72
2023/05/15 09:51:37;;;;;;;0.70;0.70;;;20.60;84.30;;;;;;5013719;28;20515;-72
2023/05/15 09:54:02;;;;;;;2.20;0.90;;;20.50;81.50;;;;;;5013092;28;20806;-71
2023/05/15 09:56:28;;;;;;;0.60;0.60;;;20.30;83.70;;;;;;5013485;28;20637;-70
2023/05/15 09:58:55;;;;;;;1.07;0.97;;;20.60;81.50;;;;;;5012703;28;20412;-70
2023/05/15 10:01:25;;;;;;;0.70;0.70;;;20.90;79.10;;;;;;5013428;28;20281;-71
2023/05/15 10:03:58;;;;;;;0.93;0.90;;;20.80;79.10;;;;;;4996362;28;20589;-71
2023/05/15 10:06:23;;;;;;;1.23;1.10;;;20.30;79.60;;;;;;5013662;28;20410;-70
2023/05/15 10:08:53;;;;;;;0.73;0.73;;;19.20;84.40;;;;;;5013781;28;20414;-71
2023/05/15 10:11:20;;;;;;;0.50;0.50;;;18.60;84.60;;;;;;5013535;28;20187;-71
2023/05/15 10:13:47;;;;;;;0.90;0.90;;;18.20;87.60;;;;;;5013814;28;20413;-71
2023/05/15 10:16:13;;;;;;;1.40;1.23;;;18.00;89.40;;;;;;5013687;28;20793;-70
2023/05/15 10:18:40;;;;;;;1.10;1.00;;;17.90;90.40;;;;;;5013726;28;20823;-70
2023/05/15 10:21:08;;;;;;;1.40;1.03;;;17.50;90.00;;;;;;5013625;28;20982;-70
2023/05/15 10:23:36;;;;;;;1.60;1.23;;;17.30;90.20;;;;;;5013482;28;20454;-71
2023/05/15 10:26:07;;;;;;;0.70;0.70;;;17.30;91.10;;;;;;5013431;28;20404;-71
2023/05/15 10:28:35;;;;;;;0.70;0.70;;;17.70;91.30;;;;;;5013769;28;20479;-70
2023/05/15 10:31:02;;;;;;;1.27;1.07;;;18.30;90.70;;;;;;5012661;28;20424;-71
2023/05/15 10:33:28;;;;;;;2.03;1.93;;;18.60;90.50;;;;;;5013445;28;20413;-71
2023/05/15 10:35:55;;;;;;;1.33;1.23;;;18.60;90.60;;;;;;5013131;28;20409;-71
2023/05/15 10:38:22;;;;;;;1.17;1.17;;;18.30;91.40;;;;;;5013665;28;20417;-70
2023/05/15 10:40:51;;;;;;;3.50;1.20;;;18.00;91.40;;;;;;5013341;28;20480;-70
2023/05/15 10:43:19;;;;;;;1.83;1.20;;;17.80;92.50;;;;;;5013337;28;20498;-71
2023/05/15 10:45:45;;;;;;;0.90;0.90;;;17.90;92.10;;;;;;5013066;28;20410;-71
2023/05/15 10:48:13;;;;;;;0.90;0.90;;;18.00;92.70;;;;;;5011831;28;20420;-71
2023/05/15 10:50:38;;;;;;;0.90;0.90;;;18.50;92.40;;;;;;5011296;28;20806;-71
2023/05/15 10:53:04;;;;;;;0.40;0.40;;;19.50;92.50;;;;;;4994254;28;20410;-71
2023/05/15 10:55:30;;;;;;;1.37;1.27;;;20.40;88.40;;;;;;5012291;28;20168;-71
2023/05/15 10:57:56;;;;;;;0.80;0.80;;;20.60;84.80;;;;;;5012490;28;20432;-71
2023/05/15 11:00:21;;;;;;;0.70;0.70;;;20.70;83.60;;;;;;5012379;28;20270;-71
2023/05/15 11:02:48;;;;;;;1.00;1.00;;;20.90;84.20;;;;;;5012802;28;20532;-71
2023/05/15 11:05:13;;;;;;;0.40;0.40;;;21.10;80.60;;;;;;5013193;28;20174;-71
2023/05/15 11:07:39;;;;;;;1.27;1.10;;;21.10;84.40;;;;;;5013105;28;20420;-71
2023/05/15 11:10:26;;;;;;;0.80;0.80;;;21.20;82.70;;;;;;5013268;28;20254;-71
2023/05/15 11:12:57;;;;;;;0.70;0.70;;;21.00;80.10;;;;;;5012970;28;20214;-71
2023/05/15 11:15:23;;;;;;;0.90;0.90;;;20.30;79.70;;;;;;5013004;28;20415;-71
2023/05/15 11:18:05;;;;;;;1.10;0.97;;;19.80;83.70;;;;;;5013062;28;20411;-71
2023/05/15 11:20:43;;;;;;;0.63;0.63;;;19.20;85.50;;;;;;5012978;28;20531;-71
2023/05/15 11:23:09;;;;;;;1.40;0.70;;;18.50;83.80;;;;;;5012901;28;20537;-71
2023/05/15 11:25:35;;;;;;;4.63;1.13;;;18.40;85.50;;;;;;5013030;28;20505;-71
2023/05/15 11:28:04;;;;;;;0.57;0.57;;;18.60;85.70;;;;;;5013073;28;20179;-70
2023/05/15 11:30:37;;;;;;;1.20;0.70;;;18.90;86.00;;;;;;5012890;28;20937;-71
2023/05/15 11:33:10;;;;;;;0.63;0.63;;;18.80;86.60;;;;;;5012968;28;20965;-71
2023/05/15 11:35:42;;;;;;;0.83;0.73;;;18.60;85.70;;;;;;5012825;28;20495;-71
2023/05/15 11:38:10;;;;;;;0.43;0.43;;;18.20;85.30;;;;;;5012939;28;20536;-71
2023/05/15 11:40:55;;;;;;;0.60;0.60;;;17.80;85.50;;;;;;5012973;28;20433;-71
2023/05/15 11:43:35;;;;;;;0.90;0.90;;;17.50;86.30;;;;;;5016170;28;20466;-71
2023/05/15 11:46:05;;;;;;;0.97;0.63;;;17.50;88.70;;;;;;4998593;28;20554;-71
2023/05/15 11:48:32;;;;;;;0.70;0.70;;;17.30;86.20;;;;;;5016726;28;20497;-71
2023/05/15 11:51:00;;;;;;;0.80;0.60;;;16.80;88.70;;;;;;5016217;28;20943;-71
2023/05/15 11:53:28;;;;;;;0.90;0.87;;;16.00;90.80;;;;;;5016295;28;21048;-70
2023/05/15 11:55:53;;;;;;;0.77;0.77;;;15.70;91.80;;;;;;5016169;28;20418;-71
2023/05/15 11:58:20;;;;;;;0.50;0.50;;;15.90;91.80;;;;;;5016298;28;20414;-70
2023/05/15 12:00:48;;;;;;;1.30;0.90;;;16.20;92.10;;;;;;5015799;28;20197;-70
2023/05/15 12:03:15;;;;;;;0.60;0.60;;;16.30;91.00;;;;;;5015967;28;20454;-71
2023/05/15 12:05:41;;;;;;;0.90;0.90;;;16.50;90.60;;;;;;5015871;28;20974;-70
2023/05/15 12:08:12;;;;;;;1.57;1.47;;;16.60;90.40;;;;;;5016024;28;20419;-70
2023/05/15 12:10:45;;;;;;;1.57;1.43;;;16.60;89.80;;;;;;5015892;28;20953;-71
2023/05/15 12:13:12;;;;;;;1.40;1.03;;;16.60;90.00;;;;;;4998182;28;20442;-70
2023/05/15 12:15:41;;;;;;;0.60;0.60;;;16.60;90.60;;;;;;5015610;28;20413;-71
2023/05/15 12:18:07;;;;;;;0.70;0.70;;;16.50;91.30;;;;;;5015877;28;20522;-70
2023/05/15 12:20:34;;;;;;;0.60;0.60;;;16.40;90.90;;;;;;5015745;28;20573;-71
2023/05/15 12:23:04;;;;;;;0.70;0.70;;;16.30;90.60;;;;;;5015685;28;20489;-70
2023/05/15 12:25:37;;;;;;;0.63;0.63;;;16.20;90.90;;;;;;5015585;28;20480;-71
2023/05/15 12:28:04;;;;;;;0.60;0.60;;;16.30;90.70;;;;;;5015822;28;20496;-71
2023/05/15 12:30:31;;;;;;;0.60;0.60;;;16.30;91.10;;;;;;5015726;28;20485;-71
2023/05/15 12:33:05;;;;;;;0.73;0.63;;;16.10;90.60;;;;;;5015538;28;20511;-70
2023/05/15 12:35:35;;;;;;;0.60;0.60;;;16.20;91.10;;;;;;5015229;28;20410;-71
2023/05/15 12:38:04;;;;;;;0.63;0.63;;;16.70;91.00;;;;;;5015244;28;20408;-71
2023/05/15 12:40:34;;;;;;;1.27;0.60;;;17.00;88.70;;;;;;5015182;28;20447;-71
2023/05/15 12:43:07;;;;;;;0.53;0.53;;;17.30;89.50;;;;;;4997610;28;20519;-71
2023/05/15 12:45:35;;;;;;;0.40;0.40;;;17.20;87.50;;;;;;5015201;28;20398;-70
2023/05/15 12:48:01;;;;;;;1.07;0.63;;;17.30;87.60;;;;;;5015284;28;20403;-71
2023/05/15 12:50:29;;;;;;;0.50;0.47;;;17.50;88.90;;;;;;5015081;28;20530;-70